sensor_id;sensor_type;location;lat;lon;timestamp;pressure;altitude;pressure_sealevel;temperature;humidity
58979;BME280;44763;50.464;30.612;2023-07-20T05:46:48;99630.51;;;28.44;38.87
58979;BME280;44763;50.464;30.612;2023-07-20T05:48:57;99630.50;;;28.56;38.48
58979;BME280;44763;50.464;30.612;2023-07-20T05:50:59;99631.67;;;28.61;37.82
58979;BME280;44763;50.464;30.612;2023-07-20T05:53:01;99630.20;;;28.67;37.15
58979;BME280;44763;50.464;30.612;2023-07-20T05:55:03;99625.27;;;28.77;36.95
58979;BME280;44763;50.464;30.612;2023-07-20T05:57:05;99625.36;;;28.80;36.66
58979;BME280;44763;50.464;30.612;2023-07-20T05:59:07;99625.23;;;28.78;36.31
58979;BME280;44763;50.464;30.612;2023-07-20T06:01:08;99624.13;;;28.72;36.66
58979;BME280;44763;50.464;30.612;2023-07-20T06:03:10;99625.84;;;28.71;37.38
58979;BME280;44763;50.464;30.612;2023-07-20T06:05:12;99627.27;;;28.78;37.18
58979;BME280;44763;50.464;30.612;2023-07-20T06:07:14;99625.83;;;28.81;37.25
58979;BME280;44763;50.464;30.612;2023-07-20T06:09:16;99627.96;;;28.87;37.49
58979;BME280;44763;50.464;30.612;2023-07-20T06:11:17;99633.94;;;28.89;36.85
58979;BME280;44763;50.464;30.612;2023-07-20T06:13:19;99635.98;;;28.87;36.86
58979;BME280;44763;50.464;30.612;2023-07-20T06:15:26;99640.54;;;28.85;36.66
58979;BME280;44763;50.464;30.612;2023-07-20T06:17:28;99642.81;;;28.80;36.82
58979;BME280;44763;50.464;30.612;2023-07-20T06:19:30;99639.89;;;28.76;36.73
58979;BME280;44763;50.464;30.612;2023-07-20T06:21:32;99640.08;;;28.75;36.29
58979;BME280;44763;50.464;30.612;2023-07-20T06:23:33;99640.23;;;28.57;36.43
58979;BME280;44763;50.464;30.612;2023-07-20T06:25:35;99637.69;;;28.24;36.53
58979;BME280;44763;50.464;30.612;2023-07-20T06:27:36;99638.77;;;28.04;37.11
58979;BME280;44763;50.464;30.612;2023-07-20T06:29:38;99631.19;;;28.02;37.60
58979;BME280;44763;50.464;30.612;2023-07-20T06:31:40;99626.77;;;28.16;37.91
58979;BME280;44763;50.464;30.612;2023-07-20T06:33:42;99622.80;;;28.27;36.65
58979;BME280;44763;50.464;30.612;2023-07-20T06:35:44;99624.16;;;28.24;36.75
58979;BME280;44763;50.464;30.612;2023-07-20T06:37:46;99623.77;;;28.26;37.31
58979;BME280;44763;50.464;30.612;2023-07-20T06:39:48;99623.92;;;28.27;37.78
58979;BME280;44763;50.464;30.612;2023-07-20T06:41:53;99623.29;;;28.22;37.62
58979;BME280;44763;50.464;30.612;2023-07-20T06:43:56;99622.62;;;28.12;37.87
58979;BME280;44763;50.464;30.612;2023-07-20T06:45:59;99624.97;;;28.12;38.17
58979;BME280;44763;50.464;30.612;2023-07-20T06:48:01;99628.96;;;28.16;37.88
58979;BME280;44763;50.464;30.612;2023-07-20T06:50:04;99626.42;;;28.11;37.78
58979;BME280;44763;50.464;30.612;2023-07-20T06:52:06;99627.75;;;28.13;38.23
58979;BME280;44763;50.464;30.612;2023-07-20T06:54:09;99629.37;;;28.25;37.82
58979;BME280;44763;50.464;30.612;2023-07-20T06:56:10;99624.67;;;28.28;37.23
58979;BME280;44763;50.464;30.612;2023-07-20T06:58:12;99629.48;;;28.35;37.53
58979;BME280;44763;50.464;30.612;2023-07-20T07:00:14;99632.87;;;28.39;36.63
58979;BME280;44763;50.464;30.612;2023-07-20T07:02:16;99631.23;;;28.37;35.38
58979;BME280;44763;50.464;30.612;2023-07-20T07:04:20;99625.48;;;28.30;35.77
58979;BME280;44763;50.464;30.612;2023-07-20T07:06:22;99631.79;;;28.19;35.77
58979;BME280;44763;50.464;30.612;2023-07-20T07:08:25;99626.58;;;28.15;34.53
58979;BME280;44763;50.464;30.612;2023-07-20T07:10:27;99629.77;;;28.15;34.90
58979;BME280;44763;50.464;30.612;2023-07-20T07:12:29;99628.45;;;28.20;34.59
58979;BME280;44763;50.464;30.612;2023-07-20T07:14:31;99625.74;;;28.37;35.33
58979;BME280;44763;50.464;30.612;2023-07-20T07:16:33;99623.98;;;28.65;35.42
58979;BME280;44763;50.464;30.612;2023-07-20T07:18:39;99626.90;;;28.88;33.78
58979;BME280;44763;50.464;30.612;2023-07-20T07:20:41;99625.45;;;28.87;33.03
58979;BME280;44763;50.464;30.612;2023-07-20T07:22:43;99626.92;;;28.75;33.35
58979;BME280;44763;50.464;30.612;2023-07-20T07:24:47;99628.23;;;28.56;33.59
58979;BME280;44763;50.464;30.612;2023-07-20T07:26:49;99626.23;;;28.35;33.72
58979;BME280;44763;50.464;30.612;2023-07-20T07:28:50;99627.80;;;28.28;34.44
58979;BME280;44763;50.464;30.612;2023-07-20T07:30:52;99622.67;;;28.27;34.90
58979;BME280;44763;50.464;30.612;2023-07-20T07:32:56;99620.44;;;28.28;34.28
58979;BME280;44763;50.464;30.612;2023-07-20T07:34:58;99630.73;;;28.26;34.12
58979;BME280;44763;50.464;30.612;2023-07-20T07:37:00;99628.45;;;28.13;34.32
58979;BME280;44763;50.464;30.612;2023-07-20T07:39:01;99628.89;;;27.95;35.61
58979;BME280;44763;50.464;30.612;2023-07-20T07:41:23;99631.73;;;27.73;35.99
58979;BME280;44763;50.464;30.612;2023-07-20T07:43:25;99627.06;;;27.57;36.87
58979;BME280;44763;50.464;30.612;2023-07-20T07:45:26;99623.61;;;27.54;36.84
58979;BME280;44763;50.464;30.612;2023-07-20T07:47:28;99619.47;;;27.61;36.74
58979;BME280;44763;50.464;30.612;2023-07-20T07:49:30;99619.05;;;27.63;36.52
58979;BME280;44763;50.464;30.612;2023-07-20T07:51:33;99618.23;;;27.57;36.18
58979;BME280;44763;50.464;30.612;2023-07-20T07:53:34;99616.36;;;27.51;36.28
58979;BME280;44763;50.464;30.612;2023-07-20T07:55:38;99617.45;;;27.44;35.45
58979;BME280;44763;50.464;30.612;2023-07-20T07:57:40;99616.53;;;27.30;35.38
58979;BME280;44763;50.464;30.612;2023-07-20T07:59:41;99614.92;;;27.13;35.58
58979;BME280;44763;50.464;30.612;2023-07-20T08:01:43;99615.50;;;26.97;36.71
58979;BME280;44763;50.464;30.612;2023-07-20T08:03:45;99614.19;;;26.91;37.48
58979;BME280;44763;50.464;30.612;2023-07-20T08:05:48;99614.21;;;26.90;38.15
58979;BME280;44763;50.464;30.612;2023-07-20T08:07:50;99612.48;;;26.93;38.21
58979;BME280;44763;50.464;30.612;2023-07-20T08:09:52;99607.80;;;26.93;38.40
58979;BME280;44763;50.464;30.612;2023-07-20T08:11:53;99609.13;;;26.96;37.72
58979;BME280;44763;50.464;30.612;2023-07-20T08:13:55;99617.15;;;26.99;37.48
58979;BME280;44763;50.464;30.612;2023-07-20T08:15:56;99616.94;;;26.98;36.96
58979;BME280;44763;50.464;30.612;2023-07-20T08:17:59;99613.45;;;27.02;36.62
58979;BME280;44763;50.464;30.612;2023-07-20T08:20:01;99615.05;;;27.08;37.09
58979;BME280;44763;50.464;30.612;2023-07-20T08:22:04;99620.00;;;27.13;36.35
58979;BME280;44763;50.464;30.612;2023-07-20T08:24:07;99618.61;;;27.17;36.05
58979;BME280;44763;50.464;30.612;2023-07-20T08:26:09;99612.41;;;27.17;35.64
58979;BME280;44763;50.464;30.612;2023-07-20T08:28:13;99617.66;;;27.16;35.30
58979;BME280;44763;50.464;30.612;2023-07-20T08:30:15;99623.89;;;27.05;35.76
58979;BME280;44763;50.464;30.612;2023-07-20T08:32:16;99625.48;;;26.86;36.24
58979;BME280;44763;50.464;30.612;2023-07-20T08:34:18;99626.33;;;26.67;36.19
58979;BME280;44763;50.464;30.612;2023-07-20T08:36:31;99618.80;;;26.54;36.23
58979;BME280;44763;50.464;30.612;2023-07-20T08:38:34;99615.53;;;26.49;36.70
58979;BME280;44763;50.464;30.612;2023-07-20T08:40:40;99612.41;;;26.47;36.59
58979;BME280;44763;50.464;30.612;2023-07-20T08:44:59;99603.40;;;26.54;36.28
58979;BME280;44763;50.464;30.612;2023-07-20T08:47:02;99599.20;;;26.63;36.38
58979;BME280;44763;50.464;30.612;2023-07-20T08:49:06;99598.08;;;26.78;36.41
58979;BME280;44763;50.464;30.612;2023-07-20T08:51:08;99593.83;;;26.93;36.10
58979;BME280;44763;50.464;30.612;2023-07-20T08:53:12;99596.29;;;27.06;36.00
58979;BME280;44763;50.464;30.612;2023-07-20T08:55:14;99592.20;;;27.15;35.98
58979;BME280;44763;50.464;30.612;2023-07-20T08:58:31;99596.02;;;27.19;34.92
58979;BME280;44763;50.464;30.612;2023-07-20T09:00:33;99589.41;;;27.11;34.91
58979;BME280;44763;50.464;30.612;2023-07-20T09:02:38;99586.85;;;27.03;35.41
58979;BME280;44763;50.464;30.612;2023-07-20T09:04:44;99584.59;;;27.01;35.73
58979;BME280;44763;50.464;30.612;2023-07-20T09:06:46;99584.73;;;27.05;34.96
58979;BME280;44763;50.464;30.612;2023-07-20T09:08:49;99585.91;;;26.99;34.10
58979;BME280;44763;50.464;30.612;2023-07-20T09:10:51;99580.52;;;26.94;34.43
58979;BME280;44763;50.464;30.612;2023-07-20T09:12:53;99578.27;;;26.96;34.95
58979;BME280;44763;50.464;30.612;2023-07-20T09:14:57;99575.55;;;26.98;34.84
58979;BME280;44763;50.464;30.612;2023-07-20T09:16:59;99577.18;;;26.98;34.57
58979;BME280;44763;50.464;30.612;2023-07-20T09:19:01;99580.20;;;26.98;33.89
58979;BME280;44763;50.464;30.612;2023-07-20T09:21:06;99577.29;;;26.95;33.96
58979;BME280;44763;50.464;30.612;2023-07-20T09:23:08;99574.73;;;26.96;33.99
58979;BME280;44763;50.464;30.612;2023-07-20T09:25:18;99570.54;;;27.01;33.48
58979;BME280;44763;50.464;30.612;2023-07-20T09:27:36;99567.05;;;27.07;33.56
58979;BME280;44763;50.464;30.612;2023-07-20T09:29:51;99566.05;;;27.13;33.90
58979;BME280;44763;50.464;30.612;2023-07-20T09:32:00;99569.00;;;27.17;33.98
58979;BME280;44763;50.464;30.612;2023-07-20T09:34:04;99568.62;;;27.23;33.87
58979;BME280;44763;50.464;30.612;2023-07-20T09:36:06;99569.04;;;27.30;33.92
58979;BME280;44763;50.464;30.612;2023-07-20T09:38:28;99569.82;;;27.37;33.49
58979;BME280;44763;50.464;30.612;2023-07-20T09:40:51;99568.61;;;27.46;33.53
58979;BME280;44763;50.464;30.612;2023-07-20T09:42:55;99561.66;;;27.55;33.71
58979;BME280;44763;50.464;30.612;2023-07-20T09:45:07;99560.02;;;27.67;33.10
58979;BME280;44763;50.464;30.612;2023-07-20T09:47:09;99565.85;;;27.75;33.06
58979;BME280;44763;50.464;30.612;2023-07-20T09:49:11;99566.18;;;27.77;33.22
58979;BME280;44763;50.464;30.612;2023-07-20T09:51:17;99559.72;;;27.85;33.40
58979;BME280;44763;50.464;30.612;2023-07-20T09:53:19;99555.73;;;27.95;32.97
58979;BME280;44763;50.464;30.612;2023-07-20T09:55:22;99558.36;;;28.08;32.98
58979;BME280;44763;50.464;30.612;2023-07-20T09:57:26;99557.63;;;28.22;32.72
58979;BME280;44763;50.464;30.612;2023-07-20T09:59:27;99556.58;;;28.29;32.74
58979;BME280;44763;50.464;30.612;2023-07-20T10:01:29;99551.98;;;28.27;32.42
58979;BME280;44763;50.464;30.612;2023-07-20T10:03:33;99552.50;;;28.20;32.53
58979;BME280;44763;50.464;30.612;2023-07-20T10:05:40;99546.52;;;28.13;33.03
58979;BME280;44763;50.464;30.612;2023-07-20T10:07:47;99547.66;;;28.09;33.21
58979;BME280;44763;50.464;30.612;2023-07-20T10:09:51;99547.92;;;28.04;33.30
58979;BME280;44763;50.464;30.612;2023-07-20T10:11:56;99550.03;;;27.95;32.73
58979;BME280;44763;50.464;30.612;2023-07-20T10:14:20;99548.64;;;27.80;32.69
58979;BME280;44763;50.464;30.612;2023-07-20T10:16:24;99547.38;;;27.66;33.18
58979;BME280;44763;50.464;30.612;2023-07-20T10:20:44;99545.38;;;27.70;33.44
58979;BME280;44763;50.464;30.612;2023-07-20T10:22:53;99541.38;;;27.75;32.92
58979;BME280;44763;50.464;30.612;2023-07-20T10:24:55;99541.37;;;27.72;32.72
58979;BME280;44763;50.464;30.612;2023-07-20T10:27:00;99543.98;;;27.62;32.60
58979;BME280;44763;50.464;30.612;2023-07-20T10:29:03;99538.67;;;27.53;32.56
58979;BME280;44763;50.464;30.612;2023-07-20T10:31:10;99531.84;;;27.48;32.68
58979;BME280;44763;50.464;30.612;2023-07-20T10:33:13;99540.41;;;27.42;33.03
58979;BME280;44763;50.464;30.612;2023-07-20T10:35:16;99534.93;;;27.40;32.98
58979;BME280;44763;50.464;30.612;2023-07-20T10:38:10;99529.30;;;27.43;32.86
58979;BME280;44763;50.464;30.612;2023-07-20T10:40:27;99527.85;;;27.53;33.18
58979;BME280;44763;50.464;30.612;2023-07-20T10:42:33;99525.41;;;27.59;32.86
58979;BME280;44763;50.464;30.612;2023-07-20T10:44:41;99523.86;;;27.53;32.72
58979;BME280;44763;50.464;30.612;2023-07-20T10:46:44;99519.70;;;27.42;32.91
58979;BME280;44763;50.464;30.612;2023-07-20T10:49:04;99522.30;;;27.32;32.78
58979;BME280;44763;50.464;30.612;2023-07-20T10:51:13;99517.18;;;27.22;33.05
58979;BME280;44763;50.464;30.612;2023-07-20T10:53:17;99513.55;;;27.18;33.36
58979;BME280;44763;50.464;30.612;2023-07-20T10:55:19;99505.45;;;27.18;33.61
58979;BME280;44763;50.464;30.612;2023-07-20T10:57:28;99505.26;;;27.24;33.60
58979;BME280;44763;50.464;30.612;2023-07-20T11:01:36;99506.59;;;27.28;33.51
58979;BME280;44763;50.464;30.612;2023-07-20T11:03:39;99507.11;;;27.26;33.31
58979;BME280;44763;50.464;30.612;2023-07-20T11:05:42;99502.33;;;27.25;33.39
58979;BME280;44763;50.464;30.612;2023-07-20T11:07:44;99494.13;;;27.26;33.35
58979;BME280;44763;50.464;30.612;2023-07-20T11:09:45;99487.38;;;27.29;33.44
58979;BME280;44763;50.464;30.612;2023-07-20T11:12:09;99484.11;;;27.30;33.58
58979;BME280;44763;50.464;30.612;2023-07-20T11:16:37;99493.16;;;27.27;34.02
58979;BME280;44763;50.464;30.612;2023-07-20T11:18:39;99490.85;;;27.28;34.06
58979;BME280;44763;50.464;30.612;2023-07-20T11:20:42;99487.21;;;27.29;34.06
58979;BME280;44763;50.464;30.612;2023-07-20T11:22:44;99487.28;;;27.32;34.21
58979;BME280;44763;50.464;30.612;2023-07-20T11:24:47;99489.15;;;27.37;33.97
58979;BME280;44763;50.464;30.612;2023-07-20T11:26:51;99481.52;;;27.41;33.55
58979;BME280;44763;50.464;30.612;2023-07-20T11:28:53;99485.70;;;27.44;33.58
58979;BME280;44763;50.464;30.612;2023-07-20T11:30:55;99485.99;;;27.40;34.02
58979;BME280;44763;50.464;30.612;2023-07-20T11:32:58;99487.66;;;27.37;34.14
58979;BME280;44763;50.464;30.612;2023-07-20T11:35:00;99484.05;;;27.39;34.38
58979;BME280;44763;50.464;30.612;2023-07-20T11:37:01;99477.33;;;27.44;34.53
58979;BME280;44763;50.464;30.612;2023-07-20T11:39:09;99474.72;;;27.50;34.20
58979;BME280;44763;50.464;30.612;2023-07-20T11:41:12;99470.19;;;27.55;34.24
58979;BME280;44763;50.464;30.612;2023-07-20T11:43:14;99459.88;;;27.61;34.36
58979;BME280;44763;50.464;30.612;2023-07-20T11:45:19;99460.00;;;27.62;34.17
58979;BME280;44763;50.464;30.612;2023-07-20T11:47:21;99456.95;;;27.55;34.45
58979;BME280;44763;50.464;30.612;2023-07-20T11:49:23;99465.48;;;27.50;34.61
58979;BME280;44763;50.464;30.612;2023-07-20T11:51:27;99445.89;;;27.41;34.39
58979;BME280;44763;50.464;30.612;2023-07-20T11:53:29;99446.81;;;27.49;34.83
58979;BME280;44763;50.464;30.612;2023-07-20T11:55:31;99446.10;;;27.54;34.87
58979;BME280;44763;50.464;30.612;2023-07-20T11:57:33;99439.04;;;27.62;34.61
58979;BME280;44763;50.464;30.612;2023-07-20T11:59:35;99434.80;;;27.71;34.79
58979;BME280;44763;50.464;30.612;2023-07-20T12:01:36;99436.58;;;27.77;34.29
58979;BME280;44763;50.464;30.612;2023-07-20T12:03:38;99431.88;;;27.75;33.85
58979;BME280;44763;50.464;30.612;2023-07-20T12:05:40;99429.40;;;27.65;33.90
58979;BME280;44763;50.464;30.612;2023-07-20T12:07:45;99421.46;;;27.57;34.06
58979;BME280;44763;50.464;30.612;2023-07-20T12:10:10;99423.44;;;27.52;34.24
58979;BME280;44763;50.464;30.612;2023-07-20T12:12:12;99414.06;;;27.54;34.32
58979;BME280;44763;50.464;30.612;2023-07-20T12:14:14;99413.48;;;27.53;34.35
58979;BME280;44763;50.464;30.612;2023-07-20T12:16:19;99415.70;;;27.52;34.32
58979;BME280;44763;50.464;30.612;2023-07-20T12:18:22;99414.69;;;27.50;34.40
58979;BME280;44763;50.464;30.612;2023-07-20T12:20:42;99418.64;;;27.48;34.60
58979;BME280;44763;50.464;30.612;2023-07-20T12:22:44;99412.11;;;27.51;34.03
58979;BME280;44763;50.464;30.612;2023-07-20T12:24:46;99404.05;;;27.51;34.05
58979;BME280;44763;50.464;30.612;2023-07-20T12:26:48;99398.45;;;27.51;34.38
58979;BME280;44763;50.464;30.612;2023-07-20T12:28:50;99395.90;;;27.55;34.80
58979;BME280;44763;50.464;30.612;2023-07-20T12:30:52;99392.44;;;27.62;34.28
58979;BME280;44763;50.464;30.612;2023-07-20T12:32:58;99382.92;;;27.63;34.01
58979;BME280;44763;50.464;30.612;2023-07-20T12:35:00;99390.39;;;27.62;34.44
58979;BME280;44763;50.464;30.612;2023-07-20T12:37:03;99386.71;;;27.60;34.24
58979;BME280;44763;50.464;30.612;2023-07-20T12:39:05;99376.67;;;27.51;34.10
58979;BME280;44763;50.464;30.612;2023-07-20T12:41:07;99364.00;;;27.49;34.46
58979;BME280;44763;50.464;30.612;2023-07-20T12:43:09;99367.80;;;27.48;34.62
58979;BME280;44763;50.464;30.612;2023-07-20T12:45:10;99364.20;;;27.47;34.55
58979;BME280;44763;50.464;30.612;2023-07-20T12:47:13;99365.50;;;27.56;34.40
58979;BME280;44763;50.464;30.612;2023-07-20T12:49:14;99370.67;;;27.60;34.37
58979;BME280;44763;50.464;30.612;2023-07-20T12:51:16;99371.77;;;27.64;34.37
58979;BME280;44763;50.464;30.612;2023-07-20T12:53:18;99364.70;;;27.67;34.58
58979;BME280;44763;50.464;30.612;2023-07-20T12:55:19;99343.65;;;27.64;34.74
58979;BME280;44763;50.464;30.612;2023-07-20T12:57:22;99359.00;;;27.70;34.56
58979;BME280;44763;50.464;30.612;2023-07-20T12:59:24;99360.84;;;27.68;34.14
58979;BME280;44763;50.464;30.612;2023-07-20T13:01:25;99361.09;;;27.66;34.15
58979;BME280;44763;50.464;30.612;2023-07-20T13:03:27;99360.85;;;27.64;34.25
58979;BME280;44763;50.464;30.612;2023-07-20T13:05:32;99361.76;;;27.65;34.22
58979;BME280;44763;50.464;30.612;2023-07-20T13:07:38;99358.59;;;27.66;34.48
58979;BME280;44763;50.464;30.612;2023-07-20T13:09:43;99355.47;;;27.63;34.85
58979;BME280;44763;50.464;30.612;2023-07-20T13:11:45;99355.29;;;27.60;35.05
58979;BME280;44763;50.464;30.612;2023-07-20T13:13:50;99346.92;;;27.58;35.11
58979;BME280;44763;50.464;30.612;2023-07-20T13:15:51;99342.70;;;27.58;34.96
58979;BME280;44763;50.464;30.612;2023-07-20T13:17:53;99332.89;;;27.62;34.77
58979;BME280;44763;50.464;30.612;2023-07-20T13:19:55;99335.50;;;27.64;34.74
58979;BME280;44763;50.464;30.612;2023-07-20T13:21:56;99337.61;;;27.68;34.64
58979;BME280;44763;50.464;30.612;2023-07-20T13:23:58;99334.02;;;27.72;34.61
58979;BME280;44763;50.464;30.612;2023-07-20T13:26:00;99339.69;;;27.74;34.59
58979;BME280;44763;50.464;30.612;2023-07-20T13:28:02;99340.20;;;27.77;34.60
58979;BME280;44763;50.464;30.612;2023-07-20T13:30:04;99330.92;;;27.74;34.53
58979;BME280;44763;50.464;30.612;2023-07-20T13:32:15;99322.83;;;27.69;34.32
58979;BME280;44763;50.464;30.612;2023-07-20T13:34:17;99323.23;;;27.66;34.43
58979;BME280;44763;50.464;30.612;2023-07-20T13:36:20;99321.08;;;27.63;35.04
58979;BME280;44763;50.464;30.612;2023-07-20T13:38:23;99322.30;;;27.63;35.09
58979;BME280;44763;50.464;30.612;2023-07-20T13:40:25;99322.27;;;27.62;34.79
58979;BME280;44763;50.464;30.612;2023-07-20T13:42:26;99316.16;;;27.60;34.68
58979;BME280;44763;50.464;30.612;2023-07-20T13:44:28;99316.33;;;27.60;34.71
58979;BME280;44763;50.464;30.612;2023-07-20T13:46:31;99315.50;;;27.57;35.22
58979;BME280;44763;50.464;30.612;2023-07-20T13:48:35;99311.96;;;27.53;34.83
58979;BME280;44763;50.464;30.612;2023-07-20T13:50:38;99304.83;;;27.52;34.59
58979;BME280;44763;50.464;30.612;2023-07-20T13:52:42;99305.31;;;27.52;34.42
58979;BME280;44763;50.464;30.612;2023-07-20T13:54:44;99300.41;;;27.55;34.62
58979;BME280;44763;50.464;30.612;2023-07-20T13:56:52;99296.06;;;27.52;34.69
58979;BME280;44763;50.464;30.612;2023-07-20T13:58:53;99306.69;;;27.54;34.66
58979;BME280;44763;50.464;30.612;2023-07-20T14:00:59;99295.27;;;27.50;34.81
58979;BME280;44763;50.464;30.612;2023-07-20T14:03:01;99288.08;;;27.46;35.00
58979;BME280;44763;50.464;30.612;2023-07-20T14:05:05;99275.28;;;27.47;35.23
58979;BME280;44763;50.464;30.612;2023-07-20T14:07:10;99266.20;;;27.46;35.30
58979;BME280;44763;50.464;30.612;2023-07-20T14:09:13;99270.47;;;27.51;35.48
58979;BME280;44763;50.464;30.612;2023-07-20T14:11:16;99271.83;;;27.52;35.64
58979;BME280;44763;50.464;30.612;2023-07-20T14:13:21;99267.88;;;27.57;35.65
58979;BME280;44763;50.464;30.612;2023-07-20T14:15:38;99269.98;;;27.61;35.39
58979;BME280;44763;50.464;30.612;2023-07-20T14:17:40;99265.27;;;27.61;35.05
58979;BME280;44763;50.464;30.612;2023-07-20T14:19:42;99258.85;;;27.60;35.34
58979;BME280;44763;50.464;30.612;2023-07-20T14:21:45;99262.99;;;27.60;35.39
58979;BME280;44763;50.464;30.612;2023-07-20T14:23:49;99256.80;;;27.59;35.06
58979;BME280;44763;50.464;30.612;2023-07-20T14:25:54;99251.73;;;27.58;35.19
58979;BME280;44763;50.464;30.612;2023-07-20T14:27:56;99254.87;;;27.56;35.11
58979;BME280;44763;50.464;30.612;2023-07-20T14:29:58;99257.80;;;27.57;34.84
58979;BME280;44763;50.464;30.612;2023-07-20T14:32:00;99262.65;;;27.55;34.61
58979;BME280;44763;50.464;30.612;2023-07-20T14:34:02;99266.48;;;27.50;34.68
58979;BME280;44763;50.464;30.612;2023-07-20T14:36:04;99268.89;;;27.50;34.85
58979;BME280;44763;50.464;30.612;2023-07-20T14:38:06;99273.48;;;27.49;35.10
58979;BME280;44763;50.464;30.612;2023-07-20T14:40:08;99277.76;;;27.47;35.34
58979;BME280;44763;50.464;30.612;2023-07-20T14:42:11;99275.48;;;27.46;35.22
58979;BME280;44763;50.464;30.612;2023-07-20T14:44:15;99271.00;;;27.45;35.23
58979;BME280;44763;50.464;30.612;2023-07-20T14:46:17;99274.11;;;27.43;35.20
58979;BME280;44763;50.464;30.612;2023-07-20T14:48:22;99275.95;;;27.42;35.04
58979;BME280;44763;50.464;30.612;2023-07-20T14:50:24;99271.18;;;27.42;35.31
58979;BME280;44763;50.464;30.612;2023-07-20T14:52:26;99273.80;;;27.43;35.56
58979;BME280;44763;50.464;30.612;2023-07-20T14:54:29;99274.61;;;27.44;35.70
58979;BME280;44763;50.464;30.612;2023-07-20T14:56:31;99273.94;;;27.45;35.69
58979;BME280;44763;50.464;30.612;2023-07-20T14:58:33;99276.42;;;27.44;35.74
58979;BME280;44763;50.464;30.612;2023-07-20T15:00:36;99277.04;;;27.44;35.83
58979;BME280;44763;50.464;30.612;2023-07-20T15:02:38;99277.14;;;27.43;36.07
58979;BME280;44763;50.464;30.612;2023-07-20T15:04:50;99276.08;;;27.40;36.01
58979;BME280;44763;50.464;30.612;2023-07-20T15:06:52;99274.44;;;27.36;36.13
58979;BME280;44763;50.464;30.612;2023-07-20T15:08:56;99275.52;;;27.32;36.31
58979;BME280;44763;50.464;30.612;2023-07-20T15:10:59;99273.95;;;27.26;36.61
58979;BME280;44763;50.464;30.612;2023-07-20T15:13:00;99278.97;;;27.18;36.81
58979;BME280;44763;50.464;30.612;2023-07-20T15:15:09;99279.61;;;27.15;36.93
58979;BME280;44763;50.464;30.612;2023-07-20T15:17:11;99273.91;;;27.06;36.99
58979;BME280;44763;50.464;30.612;2023-07-20T15:19:13;99282.17;;;27.07;37.16
58979;BME280;44763;50.464;30.612;2023-07-20T15:21:15;99280.44;;;27.05;37.29
58979;BME280;44763;50.464;30.612;2023-07-20T15:23:17;99271.75;;;27.03;37.32
58979;BME280;44763;50.464;30.612;2023-07-20T15:25:19;99270.80;;;26.99;37.37
58979;BME280;44763;50.464;30.612;2023-07-20T15:27:21;99269.19;;;26.96;37.30
58979;BME280;44763;50.464;30.612;2023-07-20T15:29:23;99265.23;;;26.95;37.39
58979;BME280;44763;50.464;30.612;2023-07-20T15:31:27;99263.98;;;26.93;37.64
58979;BME280;44763;50.464;30.612;2023-07-20T15:33:32;99260.13;;;26.93;37.80
58979;BME280;44763;50.464;30.612;2023-07-20T15:35:34;99266.69;;;26.91;38.06
58979;BME280;44763;50.464;30.612;2023-07-20T15:37:36;99273.06;;;26.90;38.18
58979;BME280;44763;50.464;30.612;2023-07-20T15:39:40;99279.08;;;26.88;38.37
58979;BME280;44763;50.464;30.612;2023-07-20T15:41:44;99287.23;;;26.87;38.54
58979;BME280;44763;50.464;30.612;2023-07-20T15:43:46;99295.31;;;26.85;39.31
58979;BME280;44763;50.464;30.612;2023-07-20T15:45:48;99311.75;;;26.82;39.71
58979;BME280;44763;50.464;30.612;2023-07-20T15:47:53;99320.71;;;26.69;40.78
58979;BME280;44763;50.464;30.612;2023-07-20T15:49:54;99357.76;;;26.30;37.90
58979;BME280;44763;50.464;30.612;2023-07-20T15:51:56;99397.91;;;25.98;37.18
58979;BME280;44763;50.464;30.612;2023-07-20T15:53:58;99412.64;;;25.61;44.85
58979;BME280;44763;50.464;30.612;2023-07-20T15:56:00;99417.98;;;25.27;53.98
58979;BME280;44763;50.464;30.612;2023-07-20T15:58:03;99445.11;;;24.57;65.10
58979;BME280;44763;50.464;30.612;2023-07-20T16:00:05;99481.20;;;23.60;75.08
58979;BME280;44763;50.464;30.612;2023-07-20T16:02:14;99488.61;;;22.67;79.44
58979;BME280;44763;50.464;30.612;2023-07-20T16:04:16;99493.80;;;21.97;84.58
58979;BME280;44763;50.464;30.612;2023-07-20T16:06:18;99500.39;;;21.47;90.37
58979;BME280;44763;50.464;30.612;2023-07-20T16:08:22;99504.27;;;21.07;95.47
58979;BME280;44763;50.464;30.612;2023-07-20T16:10:24;99510.70;;;20.74;99.34
58979;BME280;44763;50.464;30.612;2023-07-20T16:12:27;99520.55;;;20.48;100.00
58979;BME280;44763;50.464;30.612;2023-07-20T16:14:32;99519.59;;;20.26;100.00
58979;BME280;44763;50.464;30.612;2023-07-20T16:16:54;99513.44;;;19.97;100.00
58979;BME280;44763;50.464;30.612;2023-07-20T16:18:56;99522.44;;;19.73;100.00
58979;BME280;44763;50.464;30.612;2023-07-20T16:20:59;99520.68;;;19.57;100.00
58979;BME280;44763;50.464;30.612;2023-07-20T16:23:01;99523.24;;;19.46;100.00
58979;BME280;44763;50.464;30.612;2023-07-20T16:25:09;99523.60;;;19.36;100.00
58979;BME280;44763;50.464;30.612;2023-07-20T16:27:11;99527.20;;;19.26;100.00
58979;BME280;44763;50.464;30.612;2023-07-20T16:29:13;99523.16;;;19.16;100.00
58979;BME280;44763;50.464;30.612;2023-07-20T16:31:18;99521.56;;;19.08;100.00
58979;BME280;44763;50.464;30.612;2023-07-20T16:33:20;99523.98;;;19.03;100.00
58979;BME280;44763;50.464;30.612;2023-07-20T16:35:22;99529.75;;;19.00;100.00
58979;BME280;44763;50.464;30.612;2023-07-20T16:37:44;99530.08;;;18.99;100.00
58979;BME280;44763;50.464;30.612;2023-07-20T16:40:08;99527.23;;;19.04;100.00
58979;BME280;44763;50.464;30.612;2023-07-20T16:42:15;99524.65;;;19.08;100.00
58979;BME280;44763;50.464;30.612;2023-07-20T16:44:17;99520.91;;;19.17;100.00